This is the latest recevied weather packets stored in our database for station/object W4EDL-13. If no packets are shown the sender has not sent any weather packets the latest 1 day(s).
| Time | Temp. | Humidity | Pressure | Rain* | Wind** | Luminosity | Snow |
|---|---|---|---|---|---|---|---|
| 1778010556 | 28.89° C | 42% | 1006.6 hPa | - | 1.34 m/s, 31° | - | - |
| 1778010556 | 28.89° C | 42% | 1006.6 hPa | - | 1.34 m/s, 31° | - | - |
| 1778009955 | 29.44° C | 42% | 1007.3 hPa | - | 1.34 m/s, 83° | - | - |
| 1778009355 | 30° C | 39% | 1007.3 hPa | - | 2.68 m/s, 107° | - | - |
| 1778008754 | 30° C | 39% | 1007.3 hPa | - | 0.89 m/s, 82° | - | - |
| 1778008154 | 30.56° C | 41% | 1007.3 hPa | - | 0.89 m/s, 44° | - | - |
| 1778007553 | 31.11° C | 39% | 1007.3 hPa | - | 0.45 m/s, 39° | - | - |
| 1778006952 | 30.56° C | 41% | 1007.3 hPa | - | 0.89 m/s, 307° | - | - |
| 1778006352 | 29.44° C | 42% | 1007.3 hPa | - | 1.79 m/s, 53° | - | - |
| 1778005751 | 31.11° C | 40% | 1007.6 hPa | - | 1.34 m/s, 350° | - | - |
| 1778005151 | 30.56° C | 39% | 1007.6 hPa | - | 3.13 m/s, 144° | - | - |
| 1778004550 | 30° C | 42% | 1007.6 hPa | - | 1.79 m/s, 34° | - | - |
| 1778003949 | 30.56° C | 41% | 1008 hPa | - | 1.79 m/s, 97° | - | - |
| 1778003349 | 31.67° C | 41% | 1008 hPa | - | 0.89 m/s, 348° | - | - |
| 1778002748 | 30° C | 40% | 1007.6 hPa | - | 1.34 m/s, 36° | - | - |
| 1778002148 | 30.56° C | 42% | 1008 hPa | - | 0.45 m/s, 354° | - | - |
| 1778001547 | 30.56° C | 43% | 1008.3 hPa | - | 0.89 m/s, 19° | - | - |
| 1778000946 | 30° C | 44% | 1008 hPa | - | 1.34 m/s, 120° | - | - |
| 1778000346 | 31.11° C | 40% | 1008 hPa | - | 0.89 m/s, 315° | - | - |
| 1777999745 | 31.11° C | 42% | 1008 hPa | - | 0.45 m/s, 0° | - | - |
| 1777999145 | 30° C | 43% | 1008 hPa | - | 0.89 m/s, 16° | - | - |
| 1777998544 | 29.44° C | 44% | 1008 hPa | - | 0.89 m/s, 348° | - | - |
| 1777997943 | 29.44° C | 44% | 1008 hPa | - | 2.24 m/s, 14° | - | - |
| 1777997343 | 28.89° C | 44% | 1008 hPa | - | 1.34 m/s, 165° | - | - |
| 1777996742 | 29.44° C | 46% | 1008 hPa | - | 0.45 m/s, 282° | - | - |
* Rain since midnight (hover to see other rain measurements)
** Current wind speed in m/s (hover to see current wind gust speed)